sensor_id;sensor_type;location;lat;lon;timestamp;P1;durP1;ratioP1;P2;durP2;ratioP2
42244;SDS011;27912;51.828;5.688;2023-04-03T00:02:18;3.83;;;0.90;;
42244;SDS011;27912;51.828;5.688;2023-04-03T00:04:44;4.65;;;0.70;;
42244;SDS011;27912;51.828;5.688;2023-04-03T00:07:09;4.47;;;0.63;;
42244;SDS011;27912;51.828;5.688;2023-04-03T00:09:35;3.70;;;0.68;;
42244;SDS011;27912;51.828;5.688;2023-04-03T00:12:00;2.80;;;0.85;;
42244;SDS011;27912;51.828;5.688;2023-04-03T00:14:26;2.95;;;0.60;;
42244;SDS011;27912;51.828;5.688;2023-04-03T00:16:52;4.43;;;0.88;;
42244;SDS011;27912;51.828;5.688;2023-04-03T00:19:18;3.95;;;1.10;;
42244;SDS011;27912;51.828;5.688;2023-04-03T00:21:43;3.42;;;0.63;;
42244;SDS011;27912;51.828;5.688;2023-04-03T00:24:09;6.07;;;0.73;;
42244;SDS011;27912;51.828;5.688;2023-04-03T00:26:35;6.50;;;0.70;;
42244;SDS011;27912;51.828;5.688;2023-04-03T00:29:00;3.63;;;0.82;;
42244;SDS011;27912;51.828;5.688;2023-04-03T00:31:26;4.07;;;1.08;;
42244;SDS011;27912;51.828;5.688;2023-04-03T00:33:51;7.68;;;0.70;;
42244;SDS011;27912;51.828;5.688;2023-04-03T00:36:17;3.13;;;0.60;;
42244;SDS011;27912;51.828;5.688;2023-04-03T00:38:42;5.63;;;0.60;;
42244;SDS011;27912;51.828;5.688;2023-04-03T00:41:08;2.03;;;0.60;;
42244;SDS011;27912;51.828;5.688;2023-04-03T00:43:33;2.60;;;0.52;;
42244;SDS011;27912;51.828;5.688;2023-04-03T00:45:59;2.20;;;0.73;;
42244;SDS011;27912;51.828;5.688;2023-04-03T00:50:53;3.78;;;0.70;;
42244;SDS011;27912;51.828;5.688;2023-04-03T00:53:22;2.65;;;0.60;;
42244;SDS011;27912;51.828;5.688;2023-04-03T00:55:50;3.88;;;0.65;;
42244;SDS011;27912;51.828;5.688;2023-04-03T00:58:18;3.47;;;0.77;;
42244;SDS011;27912;51.828;5.688;2023-04-03T01:00:46;2.70;;;0.50;;
42244;SDS011;27912;51.828;5.688;2023-04-03T01:03:21;10.02;;;0.80;;
42244;SDS011;27912;51.828;5.688;2023-04-03T01:05:46;3.72;;;0.70;;
42244;SDS011;27912;51.828;5.688;2023-04-03T01:08:12;4.95;;;1.00;;
42244;SDS011;27912;51.828;5.688;2023-04-03T01:10:38;3.78;;;0.80;;
42244;SDS011;27912;51.828;5.688;2023-04-03T01:13:16;3.20;;;0.60;;
42244;SDS011;27912;51.828;5.688;2023-04-03T01:15:48;3.40;;;0.73;;
42244;SDS011;27912;51.828;5.688;2023-04-03T01:18:13;1.67;;;0.60;;
42244;SDS011;27912;51.828;5.688;2023-04-03T01:23:36;2.45;;;0.60;;
42244;SDS011;27912;51.828;5.688;2023-04-03T01:26:12;2.28;;;0.60;;
42244;SDS011;27912;51.828;5.688;2023-04-03T01:28:38;3.72;;;0.70;;
42244;SDS011;27912;51.828;5.688;2023-04-03T01:31:08;4.72;;;0.80;;
42244;SDS011;27912;51.828;5.688;2023-04-03T01:33:48;4.38;;;0.82;;
42244;SDS011;27912;51.828;5.688;2023-04-03T01:36:21;3.67;;;0.88;;
42244;SDS011;27912;51.828;5.688;2023-04-03T01:38:49;3.20;;;0.60;;
42244;SDS011;27912;51.828;5.688;2023-04-03T01:41:15;2.50;;;0.70;;
42244;SDS011;27912;51.828;5.688;2023-04-03T01:43:42;2.55;;;0.70;;
42244;SDS011;27912;51.828;5.688;2023-04-03T01:46:07;4.75;;;1.10;;
42244;SDS011;27912;51.828;5.688;2023-04-03T01:48:33;3.33;;;1.10;;
42244;SDS011;27912;51.828;5.688;2023-04-03T01:50:59;3.38;;;0.70;;
42244;SDS011;27912;51.828;5.688;2023-04-03T01:53:25;2.80;;;0.70;;
42244;SDS011;27912;51.828;5.688;2023-04-03T01:55:50;4.43;;;0.82;;
42244;SDS011;27912;51.828;5.688;2023-04-03T01:58:16;5.00;;;1.00;;
42244;SDS011;27912;51.828;5.688;2023-04-03T02:00:42;4.28;;;0.70;;
42244;SDS011;27912;51.828;5.688;2023-04-03T02:03:07;3.10;;;0.70;;
42244;SDS011;27912;51.828;5.688;2023-04-03T02:05:33;4.53;;;0.68;;
42244;SDS011;27912;51.828;5.688;2023-04-03T02:08:00;7.35;;;0.90;;
42244;SDS011;27912;51.828;5.688;2023-04-03T02:10:25;2.92;;;0.80;;
42244;SDS011;27912;51.828;5.688;2023-04-03T02:12:51;3.97;;;0.80;;
42244;SDS011;27912;51.828;5.688;2023-04-03T02:15:17;4.25;;;0.80;;
42244;SDS011;27912;51.828;5.688;2023-04-03T02:17:43;3.83;;;0.82;;
42244;SDS011;27912;51.828;5.688;2023-04-03T02:20:08;5.47;;;0.80;;
42244;SDS011;27912;51.828;5.688;2023-04-03T02:22:34;4.80;;;0.93;;
42244;SDS011;27912;51.828;5.688;2023-04-03T02:25:00;4.18;;;1.02;;
42244;SDS011;27912;51.828;5.688;2023-04-03T02:27:26;5.32;;;1.05;;
42244;SDS011;27912;51.828;5.688;2023-04-03T02:29:52;4.45;;;0.80;;
42244;SDS011;27912;51.828;5.688;2023-04-03T02:32:17;3.17;;;0.70;;
42244;SDS011;27912;51.828;5.688;2023-04-03T02:34:43;3.53;;;0.80;;
42244;SDS011;27912;51.828;5.688;2023-04-03T02:37:08;3.90;;;0.70;;
42244;SDS011;27912;51.828;5.688;2023-04-03T02:39:34;4.88;;;0.88;;
42244;SDS011;27912;51.828;5.688;2023-04-03T02:42:00;3.38;;;0.90;;
42244;SDS011;27912;51.828;5.688;2023-04-03T02:44:25;5.47;;;0.80;;
42244;SDS011;27912;51.828;5.688;2023-04-03T02:46:51;4.53;;;0.90;;
42244;SDS011;27912;51.828;5.688;2023-04-03T02:49:16;3.10;;;0.70;;
42244;SDS011;27912;51.828;5.688;2023-04-03T02:51:42;4.13;;;0.90;;
42244;SDS011;27912;51.828;5.688;2023-04-03T02:54:08;5.00;;;1.10;;
42244;SDS011;27912;51.828;5.688;2023-04-03T02:56:33;3.97;;;0.70;;
42244;SDS011;27912;51.828;5.688;2023-04-03T02:58:59;4.20;;;0.70;;
42244;SDS011;27912;51.828;5.688;2023-04-03T03:01:25;2.20;;;0.70;;
42244;SDS011;27912;51.828;5.688;2023-04-03T03:03:53;5.38;;;1.13;;
42244;SDS011;27912;51.828;5.688;2023-04-03T03:06:19;2.78;;;0.60;;
42244;SDS011;27912;51.828;5.688;2023-04-03T03:08:45;4.45;;;1.00;;
42244;SDS011;27912;51.828;5.688;2023-04-03T03:11:10;4.03;;;0.90;;
42244;SDS011;27912;51.828;5.688;2023-04-03T03:13:36;4.60;;;0.90;;
42244;SDS011;27912;51.828;5.688;2023-04-03T03:16:02;4.15;;;0.80;;
42244;SDS011;27912;51.828;5.688;2023-04-03T03:18:28;6.00;;;1.20;;
42244;SDS011;27912;51.828;5.688;2023-04-03T03:20:55;6.28;;;1.10;;
42244;SDS011;27912;51.828;5.688;2023-04-03T03:23:22;2.38;;;0.75;;
42244;SDS011;27912;51.828;5.688;2023-04-03T03:25:53;8.02;;;1.25;;
42244;SDS011;27912;51.828;5.688;2023-04-03T03:28:20;3.15;;;0.90;;
42244;SDS011;27912;51.828;5.688;2023-04-03T03:30:46;2.72;;;0.60;;
42244;SDS011;27912;51.828;5.688;2023-04-03T03:33:12;3.35;;;0.82;;
42244;SDS011;27912;51.828;5.688;2023-04-03T03:35:37;6.00;;;1.17;;
42244;SDS011;27912;51.828;5.688;2023-04-03T03:38:03;6.68;;;0.80;;
42244;SDS011;27912;51.828;5.688;2023-04-03T03:40:28;3.78;;;0.77;;
42244;SDS011;27912;51.828;5.688;2023-04-03T03:42:54;5.07;;;0.80;;
42244;SDS011;27912;51.828;5.688;2023-04-03T03:45:19;3.55;;;1.02;;
42244;SDS011;27912;51.828;5.688;2023-04-03T03:47:45;3.33;;;0.68;;
42244;SDS011;27912;51.828;5.688;2023-04-03T03:50:11;3.90;;;1.40;;
42244;SDS011;27912;51.828;5.688;2023-04-03T03:52:36;4.18;;;1.00;;
42244;SDS011;27912;51.828;5.688;2023-04-03T03:55:02;4.93;;;1.00;;
42244;SDS011;27912;51.828;5.688;2023-04-03T03:57:28;9.93;;;1.23;;
42244;SDS011;27912;51.828;5.688;2023-04-03T03:59:53;2.63;;;0.82;;
42244;SDS011;27912;51.828;5.688;2023-04-03T04:02:19;5.78;;;1.00;;
42244;SDS011;27912;51.828;5.688;2023-04-03T04:04:45;5.22;;;0.80;;
42244;SDS011;27912;51.828;5.688;2023-04-03T04:07:11;6.15;;;1.08;;
42244;SDS011;27912;51.828;5.688;2023-04-03T04:09:36;3.83;;;1.20;;
42244;SDS011;27912;51.828;5.688;2023-04-03T04:12:02;4.00;;;0.70;;
42244;SDS011;27912;51.828;5.688;2023-04-03T04:14:28;5.70;;;0.80;;
42244;SDS011;27912;51.828;5.688;2023-04-03T04:16:53;4.03;;;0.80;;
42244;SDS011;27912;51.828;5.688;2023-04-03T04:19:19;3.67;;;1.05;;
42244;SDS011;27912;51.828;5.688;2023-04-03T04:21:44;2.85;;;0.85;;
42244;SDS011;27912;51.828;5.688;2023-04-03T04:24:10;4.85;;;0.90;;
42244;SDS011;27912;51.828;5.688;2023-04-03T04:26:36;4.45;;;0.75;;
42244;SDS011;27912;51.828;5.688;2023-04-03T04:29:01;5.28;;;1.00;;
42244;SDS011;27912;51.828;5.688;2023-04-03T04:31:27;5.15;;;1.08;;
42244;SDS011;27912;51.828;5.688;2023-04-03T04:33:53;6.75;;;1.13;;
42244;SDS011;27912;51.828;5.688;2023-04-03T04:36:18;4.07;;;0.70;;
42244;SDS011;27912;51.828;5.688;2023-04-03T04:38:44;4.70;;;0.73;;
42244;SDS011;27912;51.828;5.688;2023-04-03T04:41:10;3.67;;;1.15;;
42244;SDS011;27912;51.828;5.688;2023-04-03T04:43:35;3.75;;;0.60;;
42244;SDS011;27912;51.828;5.688;2023-04-03T04:46:08;4.95;;;1.08;;
42244;SDS011;27912;51.828;5.688;2023-04-03T04:48:36;4.97;;;1.00;;
42244;SDS011;27912;51.828;5.688;2023-04-03T04:51:02;3.75;;;0.90;;
42244;SDS011;27912;51.828;5.688;2023-04-03T04:53:28;3.33;;;0.88;;
42244;SDS011;27912;51.828;5.688;2023-04-03T04:55:54;9.93;;;1.30;;
42244;SDS011;27912;51.828;5.688;2023-04-03T04:58:20;5.47;;;0.73;;
42244;SDS011;27912;51.828;5.688;2023-04-03T05:00:45;4.00;;;0.82;;
42244;SDS011;27912;51.828;5.688;2023-04-03T05:03:11;5.75;;;1.77;;
42244;SDS011;27912;51.828;5.688;2023-04-03T05:05:37;2.83;;;0.60;;
42244;SDS011;27912;51.828;5.688;2023-04-03T05:08:03;4.43;;;0.73;;
42244;SDS011;27912;51.828;5.688;2023-04-03T05:10:29;4.93;;;0.90;;
42244;SDS011;27912;51.828;5.688;2023-04-03T05:12:56;4.80;;;0.85;;
42244;SDS011;27912;51.828;5.688;2023-04-03T05:15:21;3.42;;;0.77;;
42244;SDS011;27912;51.828;5.688;2023-04-03T05:17:47;3.55;;;0.82;;
42244;SDS011;27912;51.828;5.688;2023-04-03T05:20:12;4.30;;;0.80;;
42244;SDS011;27912;51.828;5.688;2023-04-03T05:22:38;5.35;;;0.90;;
42244;SDS011;27912;51.828;5.688;2023-04-03T05:25:04;3.53;;;0.65;;
42244;SDS011;27912;51.828;5.688;2023-04-03T05:27:30;5.20;;;1.17;;
42244;SDS011;27912;51.828;5.688;2023-04-03T05:29:56;5.38;;;0.73;;
42244;SDS011;27912;51.828;5.688;2023-04-03T05:32:22;7.28;;;0.80;;
42244;SDS011;27912;51.828;5.688;2023-04-03T05:34:50;5.35;;;0.90;;
42244;SDS011;27912;51.828;5.688;2023-04-03T05:37:16;2.80;;;0.70;;
42244;SDS011;27912;51.828;5.688;2023-04-03T05:39:42;3.80;;;0.73;;
42244;SDS011;27912;51.828;5.688;2023-04-03T05:42:07;3.00;;;0.73;;
42244;SDS011;27912;51.828;5.688;2023-04-03T05:44:33;4.63;;;0.90;;
42244;SDS011;27912;51.828;5.688;2023-04-03T05:46:59;5.28;;;1.17;;
42244;SDS011;27912;51.828;5.688;2023-04-03T05:49:24;4.63;;;0.82;;
42244;SDS011;27912;51.828;5.688;2023-04-03T05:51:50;7.22;;;1.20;;
42244;SDS011;27912;51.828;5.688;2023-04-03T05:54:24;6.50;;;1.08;;
42244;SDS011;27912;51.828;5.688;2023-04-03T05:56:52;4.60;;;0.80;;
42244;SDS011;27912;51.828;5.688;2023-04-03T05:59:18;5.43;;;1.13;;
42244;SDS011;27912;51.828;5.688;2023-04-03T06:01:44;5.18;;;0.68;;
42244;SDS011;27912;51.828;5.688;2023-04-03T06:04:10;8.32;;;1.00;;
42244;SDS011;27912;51.828;5.688;2023-04-03T06:09:09;7.43;;;1.15;;
42244;SDS011;27912;51.828;5.688;2023-04-03T06:11:34;6.65;;;1.17;;
42244;SDS011;27912;51.828;5.688;2023-04-03T06:14:00;6.45;;;1.05;;
42244;SDS011;27912;51.828;5.688;2023-04-03T06:16:26;8.65;;;1.00;;
42244;SDS011;27912;51.828;5.688;2023-04-03T06:18:52;4.50;;;0.95;;
42244;SDS011;27912;51.828;5.688;2023-04-03T06:21:17;6.93;;;1.00;;
42244;SDS011;27912;51.828;5.688;2023-04-03T06:23:43;4.75;;;0.98;;
42244;SDS011;27912;51.828;5.688;2023-04-03T06:26:08;5.53;;;1.02;;
42244;SDS011;27912;51.828;5.688;2023-04-03T06:28:34;4.78;;;0.88;;
42244;SDS011;27912;51.828;5.688;2023-04-03T06:30:59;7.10;;;1.33;;
42244;SDS011;27912;51.828;5.688;2023-04-03T06:33:25;9.02;;;1.17;;
42244;SDS011;27912;51.828;5.688;2023-04-03T06:35:55;4.60;;;0.80;;
42244;SDS011;27912;51.828;5.688;2023-04-03T06:38:22;4.50;;;0.80;;
42244;SDS011;27912;51.828;5.688;2023-04-03T06:40:48;5.43;;;0.77;;
42244;SDS011;27912;51.828;5.688;2023-04-03T06:43:14;10.25;;;0.98;;
42244;SDS011;27912;51.828;5.688;2023-04-03T06:45:39;5.38;;;1.35;;
42244;SDS011;27912;51.828;5.688;2023-04-03T06:48:05;5.15;;;1.25;;
42244;SDS011;27912;51.828;5.688;2023-04-03T06:50:31;4.57;;;1.10;;
42244;SDS011;27912;51.828;5.688;2023-04-03T06:52:56;2.70;;;0.70;;
42244;SDS011;27912;51.828;5.688;2023-04-03T06:55:22;4.30;;;0.90;;
42244;SDS011;27912;51.828;5.688;2023-04-03T06:57:47;8.95;;;1.83;;
42244;SDS011;27912;51.828;5.688;2023-04-03T07:00:13;5.97;;;0.80;;
42244;SDS011;27912;51.828;5.688;2023-04-03T07:02:39;5.53;;;0.70;;
42244;SDS011;27912;51.828;5.688;2023-04-03T07:05:05;7.78;;;0.75;;
42244;SDS011;27912;51.828;5.688;2023-04-03T07:07:31;5.53;;;1.30;;
42244;SDS011;27912;51.828;5.688;2023-04-03T07:09:58;6.90;;;0.85;;
42244;SDS011;27912;51.828;5.688;2023-04-03T07:12:24;4.28;;;0.80;;
42244;SDS011;27912;51.828;5.688;2023-04-03T07:14:51;5.00;;;1.15;;
42244;SDS011;27912;51.828;5.688;2023-04-03T07:17:16;2.90;;;0.50;;
42244;SDS011;27912;51.828;5.688;2023-04-03T07:19:42;6.55;;;0.90;;
42244;SDS011;27912;51.828;5.688;2023-04-03T07:22:07;5.30;;;0.70;;
42244;SDS011;27912;51.828;5.688;2023-04-03T07:24:33;5.43;;;1.25;;
42244;SDS011;27912;51.828;5.688;2023-04-03T07:26:59;3.72;;;0.70;;
42244;SDS011;27912;51.828;5.688;2023-04-03T07:29:26;5.80;;;1.02;;
42244;SDS011;27912;51.828;5.688;2023-04-03T07:31:52;5.20;;;1.15;;
42244;SDS011;27912;51.828;5.688;2023-04-03T07:34:18;7.13;;;1.35;;
42244;SDS011;27912;51.828;5.688;2023-04-03T07:36:43;5.28;;;1.05;;
42244;SDS011;27912;51.828;5.688;2023-04-03T07:39:09;4.80;;;0.75;;
42244;SDS011;27912;51.828;5.688;2023-04-03T07:41:36;6.30;;;0.70;;
42244;SDS011;27912;51.828;5.688;2023-04-03T07:44:01;5.03;;;0.98;;
42244;SDS011;27912;51.828;5.688;2023-04-03T07:46:27;4.88;;;0.90;;
42244;SDS011;27912;51.828;5.688;2023-04-03T07:48:53;5.22;;;0.75;;
42244;SDS011;27912;51.828;5.688;2023-04-03T07:51:18;8.00;;;0.93;;
42244;SDS011;27912;51.828;5.688;2023-04-03T07:53:44;5.00;;;0.70;;
42244;SDS011;27912;51.828;5.688;2023-04-03T07:56:10;6.72;;;0.60;;
42244;SDS011;27912;51.828;5.688;2023-04-03T07:58:36;4.13;;;0.60;;
42244;SDS011;27912;51.828;5.688;2023-04-03T08:01:02;2.20;;;0.57;;
42244;SDS011;27912;51.828;5.688;2023-04-03T08:03:28;5.25;;;0.60;;
42244;SDS011;27912;51.828;5.688;2023-04-03T08:05:53;3.88;;;0.70;;
42244;SDS011;27912;51.828;5.688;2023-04-03T08:08:23;4.50;;;0.80;;
42244;SDS011;27912;51.828;5.688;2023-04-03T08:10:49;5.65;;;0.57;;
42244;SDS011;27912;51.828;5.688;2023-04-03T08:13:17;6.38;;;0.75;;
42244;SDS011;27912;51.828;5.688;2023-04-03T08:15:43;3.97;;;0.60;;
42244;SDS011;27912;51.828;5.688;2023-04-03T08:18:09;4.32;;;0.80;;
42244;SDS011;27912;51.828;5.688;2023-04-03T08:20:35;4.28;;;0.70;;
42244;SDS011;27912;51.828;5.688;2023-04-03T08:23:03;4.22;;;0.70;;
42244;SDS011;27912;51.828;5.688;2023-04-03T08:25:28;5.20;;;0.63;;
42244;SDS011;27912;51.828;5.688;2023-04-03T08:27:54;2.75;;;0.50;;
42244;SDS011;27912;51.828;5.688;2023-04-03T08:30:20;4.22;;;0.50;;
42244;SDS011;27912;51.828;5.688;2023-04-03T08:32:46;3.58;;;0.52;;
42244;SDS011;27912;51.828;5.688;2023-04-03T08:35:12;3.80;;;0.70;;
42244;SDS011;27912;51.828;5.688;2023-04-03T08:37:38;5.75;;;0.60;;
42244;SDS011;27912;51.828;5.688;2023-04-03T08:40:05;2.95;;;0.40;;
42244;SDS011;27912;51.828;5.688;2023-04-03T08:45:31;3.25;;;0.50;;
42244;SDS011;27912;51.828;5.688;2023-04-03T08:48:08;4.47;;;0.60;;
42244;SDS011;27912;51.828;5.688;2023-04-03T08:50:39;6.00;;;1.33;;
42244;SDS011;27912;51.828;5.688;2023-04-03T08:53:11;2.90;;;0.40;;
42244;SDS011;27912;51.828;5.688;2023-04-03T08:55:43;5.05;;;0.60;;
42244;SDS011;27912;51.828;5.688;2023-04-03T08:58:12;2.92;;;0.40;;
42244;SDS011;27912;51.828;5.688;2023-04-03T09:00:46;3.45;;;0.40;;
42244;SDS011;27912;51.828;5.688;2023-04-03T09:03:22;2.05;;;0.47;;
42244;SDS011;27912;51.828;5.688;2023-04-03T09:06:04;1.08;;;0.30;;
42244;SDS011;27912;51.828;5.688;2023-04-03T09:08:43;2.15;;;0.35;;
42244;SDS011;27912;51.828;5.688;2023-04-03T09:11:25;2.80;;;0.40;;
42244;SDS011;27912;51.828;5.688;2023-04-03T09:16:55;1.40;;;0.20;;
42244;SDS011;27912;51.828;5.688;2023-04-03T09:22:11;1.30;;;0.22;;
42244;SDS011;27912;51.828;5.688;2023-04-03T09:24:47;1.27;;;0.30;;
42244;SDS011;27912;51.828;5.688;2023-04-03T09:27:21;2.47;;;0.30;;
42244;SDS011;27912;51.828;5.688;2023-04-03T09:29:46;2.58;;;0.30;;
42244;SDS011;27912;51.828;5.688;2023-04-03T09:32:19;3.88;;;0.40;;
42244;SDS011;27912;51.828;5.688;2023-04-03T09:34:49;2.40;;;0.20;;
42244;SDS011;27912;51.828;5.688;2023-04-03T09:37:33;2.75;;;0.30;;
42244;SDS011;27912;51.828;5.688;2023-04-03T09:43:01;1.20;;;0.15;;
42244;SDS011;27912;51.828;5.688;2023-04-03T09:45:44;1.25;;;0.20;;
42244;SDS011;27912;51.828;5.688;2023-04-03T09:50:55;2.30;;;0.20;;
42244;SDS011;27912;51.828;5.688;2023-04-03T09:56:04;3.67;;;0.20;;
42244;SDS011;27912;51.828;5.688;2023-04-03T09:58:49;0.50;;;0.10;;
42244;SDS011;27912;51.828;5.688;2023-04-03T10:04:11;0.73;;;0.10;;
42244;SDS011;27912;51.828;5.688;2023-04-03T10:06:51;0.30;;;0.08;;
42244;SDS011;27912;51.828;5.688;2023-04-03T10:09:27;0.63;;;0.10;;
42244;SDS011;27912;51.828;5.688;2023-04-03T10:12:08;0.65;;;0.10;;
42244;SDS011;27912;51.828;5.688;2023-04-03T10:14:41;1.17;;;0.20;;
42244;SDS011;27912;51.828;5.688;2023-04-03T10:20:05;0.82;;;0.10;;
42244;SDS011;27912;51.828;5.688;2023-04-03T10:30:47;1.50;;;0.15;;
42244;SDS011;27912;51.828;5.688;2023-04-03T10:41:59;0.50;;;0.10;;
42244;SDS011;27912;51.828;5.688;2023-04-03T10:50:43;1.25;;;0.10;;
42244;SDS011;27912;51.828;5.688;2023-04-03T10:59:14;1.00;;;0.17;;
42244;SDS011;27912;51.828;5.688;2023-04-03T11:01:56;3.55;;;0.20;;
42244;SDS011;27912;51.828;5.688;2023-04-03T11:04:44;1.77;;;0.20;;
42244;SDS011;27912;51.828;5.688;2023-04-03T11:07:20;2.85;;;0.20;;
42244;SDS011;27912;51.828;5.688;2023-04-03T11:09:56;0.57;;;0.25;;
42244;SDS011;27912;51.828;5.688;2023-04-03T11:12:29;1.38;;;0.10;;
42244;SDS011;27912;51.828;5.688;2023-04-03T11:15:11;1.75;;;0.10;;
42244;SDS011;27912;51.828;5.688;2023-04-03T11:17:48;0.77;;;0.20;;
42244;SDS011;27912;51.828;5.688;2023-04-03T11:22:51;0.60;;;0.10;;
42244;SDS011;27912;51.828;5.688;2023-04-03T11:25:24;1.02;;;0.20;;
42244;SDS011;27912;51.828;5.688;2023-04-03T11:27:58;1.08;;;0.20;;
42244;SDS011;27912;51.828;5.688;2023-04-03T11:35:43;2.67;;;0.22;;
42244;SDS011;27912;51.828;5.688;2023-04-03T11:38:14;0.80;;;0.10;;
42244;SDS011;27912;51.828;5.688;2023-04-03T11:40:46;1.27;;;0.10;;
42244;SDS011;27912;51.828;5.688;2023-04-03T11:43:25;0.85;;;0.10;;
42244;SDS011;27912;51.828;5.688;2023-04-03T11:45:55;0.90;;;0.20;;
42244;SDS011;27912;51.828;5.688;2023-04-03T11:50:59;1.15;;;0.20;;
42244;SDS011;27912;51.828;5.688;2023-04-03T11:53:46;1.88;;;0.30;;
42244;SDS011;27912;51.828;5.688;2023-04-03T11:56:28;2.45;;;0.17;;
42244;SDS011;27912;51.828;5.688;2023-04-03T12:01:51;1.73;;;0.20;;
42244;SDS011;27912;51.828;5.688;2023-04-03T12:04:23;3.15;;;0.22;;
42244;SDS011;27912;51.828;5.688;2023-04-03T12:12:21;1.38;;;0.20;;
42244;SDS011;27912;51.828;5.688;2023-04-03T12:17:20;1.63;;;0.20;;
42244;SDS011;27912;51.828;5.688;2023-04-03T12:19:51;2.03;;;0.40;;
42244;SDS011;27912;51.828;5.688;2023-04-03T12:22:17;2.97;;;0.20;;
42244;SDS011;27912;51.828;5.688;2023-04-03T12:24:46;1.25;;;0.20;;
42244;SDS011;27912;51.828;5.688;2023-04-03T12:35:27;3.20;;;0.28;;
42244;SDS011;27912;51.828;5.688;2023-04-03T12:40:50;5.03;;;0.30;;
42244;SDS011;27912;51.828;5.688;2023-04-03T12:46:15;0.73;;;0.20;;
42244;SDS011;27912;51.828;5.688;2023-04-03T12:48:48;7.47;;;0.40;;
42244;SDS011;27912;51.828;5.688;2023-04-03T12:54:01;2.20;;;0.40;;
42244;SDS011;27912;51.828;5.688;2023-04-03T12:56:40;1.38;;;0.30;;
42244;SDS011;27912;51.828;5.688;2023-04-03T12:59:22;1.45;;;0.25;;
42244;SDS011;27912;51.828;5.688;2023-04-03T13:01:55;1.60;;;0.30;;
42244;SDS011;27912;51.828;5.688;2023-04-03T13:04:22;1.10;;;0.20;;
42244;SDS011;27912;51.828;5.688;2023-04-03T13:06:49;3.28;;;0.40;;
42244;SDS011;27912;51.828;5.688;2023-04-03T13:09:19;3.80;;;0.32;;
42244;SDS011;27912;51.828;5.688;2023-04-03T13:11:47;1.98;;;0.30;;
42244;SDS011;27912;51.828;5.688;2023-04-03T13:14:24;4.43;;;0.40;;
42244;SDS011;27912;51.828;5.688;2023-04-03T13:19:19;1.42;;;0.30;;
42244;SDS011;27912;51.828;5.688;2023-04-03T13:21:45;3.85;;;0.30;;
42244;SDS011;27912;51.828;5.688;2023-04-03T13:24:11;2.88;;;0.30;;
42244;SDS011;27912;51.828;5.688;2023-04-03T13:26:37;3.20;;;0.30;;
42244;SDS011;27912;51.828;5.688;2023-04-03T13:29:14;2.25;;;0.50;;
42244;SDS011;27912;51.828;5.688;2023-04-03T13:31:46;1.52;;;0.30;;
42244;SDS011;27912;51.828;5.688;2023-04-03T13:34:12;1.00;;;0.30;;
42244;SDS011;27912;51.828;5.688;2023-04-03T13:36:46;1.45;;;0.30;;
42244;SDS011;27912;51.828;5.688;2023-04-03T13:41:57;1.83;;;0.38;;
42244;SDS011;27912;51.828;5.688;2023-04-03T13:44:36;2.22;;;0.32;;
42244;SDS011;27912;51.828;5.688;2023-04-03T13:47:15;1.27;;;0.30;;
42244;SDS011;27912;51.828;5.688;2023-04-03T13:49:42;2.03;;;0.35;;
42244;SDS011;27912;51.828;5.688;2023-04-03T13:54:56;7.03;;;0.30;;
42244;SDS011;27912;51.828;5.688;2023-04-03T13:57:27;0.47;;;0.20;;
42244;SDS011;27912;51.828;5.688;2023-04-03T13:59:54;1.65;;;0.30;;
42244;SDS011;27912;51.828;5.688;2023-04-03T14:02:33;1.52;;;0.40;;
42244;SDS011;27912;51.828;5.688;2023-04-03T14:04:59;1.27;;;0.32;;
42244;SDS011;27912;51.828;5.688;2023-04-03T14:07:27;2.65;;;0.30;;
42244;SDS011;27912;51.828;5.688;2023-04-03T14:09:54;1.60;;;0.30;;
42244;SDS011;27912;51.828;5.688;2023-04-03T14:12:31;1.60;;;0.38;;
42244;SDS011;27912;51.828;5.688;2023-04-03T14:15:06;2.97;;;0.30;;
42244;SDS011;27912;51.828;5.688;2023-04-03T14:17:41;3.08;;;0.30;;
42244;SDS011;27912;51.828;5.688;2023-04-03T14:20:10;1.98;;;0.30;;
42244;SDS011;27912;51.828;5.688;2023-04-03T14:22:40;4.22;;;0.30;;
42244;SDS011;27912;51.828;5.688;2023-04-03T14:25:06;1.27;;;0.20;;
42244;SDS011;27912;51.828;5.688;2023-04-03T14:27:36;2.22;;;0.30;;
42244;SDS011;27912;51.828;5.688;2023-04-03T14:30:04;1.67;;;0.30;;
42244;SDS011;27912;51.828;5.688;2023-04-03T14:32:34;2.88;;;0.40;;
42244;SDS011;27912;51.828;5.688;2023-04-03T14:35:00;4.85;;;0.43;;
42244;SDS011;27912;51.828;5.688;2023-04-03T14:37:26;1.02;;;0.20;;
42244;SDS011;27912;51.828;5.688;2023-04-03T14:39:54;1.13;;;0.30;;
42244;SDS011;27912;51.828;5.688;2023-04-03T14:42:31;2.42;;;0.30;;
42244;SDS011;27912;51.828;5.688;2023-04-03T14:45:01;2.67;;;0.30;;
42244;SDS011;27912;51.828;5.688;2023-04-03T14:47:28;1.55;;;0.30;;
42244;SDS011;27912;51.828;5.688;2023-04-03T14:49:54;2.88;;;0.40;;
42244;SDS011;27912;51.828;5.688;2023-04-03T14:52:25;1.30;;;0.30;;
42244;SDS011;27912;51.828;5.688;2023-04-03T14:54:59;2.47;;;0.50;;
42244;SDS011;27912;51.828;5.688;2023-04-03T14:57:28;3.20;;;0.40;;
42244;SDS011;27912;51.828;5.688;2023-04-03T14:59:54;1.88;;;0.40;;
42244;SDS011;27912;51.828;5.688;2023-04-03T15:05:02;2.30;;;0.38;;
42244;SDS011;27912;51.828;5.688;2023-04-03T15:07:31;4.10;;;0.40;;
42244;SDS011;27912;51.828;5.688;2023-04-03T15:10:05;2.53;;;0.30;;
42244;SDS011;27912;51.828;5.688;2023-04-03T15:12:51;2.17;;;0.60;;
42244;SDS011;27912;51.828;5.688;2023-04-03T15:15:18;3.42;;;0.30;;
42244;SDS011;27912;51.828;5.688;2023-04-03T15:17:45;4.80;;;0.43;;
42244;SDS011;27912;51.828;5.688;2023-04-03T15:20:19;2.20;;;0.38;;
42244;SDS011;27912;51.828;5.688;2023-04-03T15:22:46;2.13;;;0.30;;
42244;SDS011;27912;51.828;5.688;2023-04-03T15:25:12;1.15;;;0.30;;
42244;SDS011;27912;51.828;5.688;2023-04-03T15:27:38;1.58;;;0.30;;
42244;SDS011;27912;51.828;5.688;2023-04-03T15:30:06;1.48;;;0.32;;
42244;SDS011;27912;51.828;5.688;2023-04-03T15:32:33;1.90;;;0.40;;
42244;SDS011;27912;51.828;5.688;2023-04-03T15:35:00;1.33;;;0.30;;
42244;SDS011;27912;51.828;5.688;2023-04-03T15:37:26;4.40;;;0.50;;
42244;SDS011;27912;51.828;5.688;2023-04-03T15:39:52;2.40;;;0.40;;
42244;SDS011;27912;51.828;5.688;2023-04-03T15:42:17;2.75;;;0.30;;
42244;SDS011;27912;51.828;5.688;2023-04-03T15:44:43;2.45;;;0.50;;
42244;SDS011;27912;51.828;5.688;2023-04-03T15:47:08;3.75;;;0.30;;
42244;SDS011;27912;51.828;5.688;2023-04-03T15:49:34;3.53;;;0.40;;
42244;SDS011;27912;51.828;5.688;2023-04-03T15:52:00;1.67;;;0.32;;
42244;SDS011;27912;51.828;5.688;2023-04-03T15:54:26;3.20;;;0.38;;
42244;SDS011;27912;51.828;5.688;2023-04-03T15:56:51;4.43;;;0.47;;
42244;SDS011;27912;51.828;5.688;2023-04-03T15:59:18;2.85;;;0.43;;
42244;SDS011;27912;51.828;5.688;2023-04-03T16:01:44;3.38;;;0.40;;
42244;SDS011;27912;51.828;5.688;2023-04-03T16:04:09;1.27;;;0.30;;
42244;SDS011;27912;51.828;5.688;2023-04-03T16:06:36;2.67;;;0.40;;
42244;SDS011;27912;51.828;5.688;2023-04-03T16:09:02;2.63;;;0.20;;
42244;SDS011;27912;51.828;5.688;2023-04-03T16:11:29;6.20;;;0.80;;
42244;SDS011;27912;51.828;5.688;2023-04-03T16:13:55;9.05;;;1.90;;
42244;SDS011;27912;51.828;5.688;2023-04-03T16:16:21;5.97;;;0.80;;
42244;SDS011;27912;51.828;5.688;2023-04-03T16:18:48;4.93;;;0.70;;
42244;SDS011;27912;51.828;5.688;2023-04-03T16:21:14;2.95;;;0.50;;
42244;SDS011;27912;51.828;5.688;2023-04-03T16:23:41;3.22;;;0.47;;
42244;SDS011;27912;51.828;5.688;2023-04-03T16:26:08;3.50;;;0.40;;
42244;SDS011;27912;51.828;5.688;2023-04-03T16:28:34;5.85;;;0.68;;
42244;SDS011;27912;51.828;5.688;2023-04-03T16:30:59;2.35;;;0.47;;
42244;SDS011;27912;51.828;5.688;2023-04-03T16:33:26;2.05;;;0.40;;
42244;SDS011;27912;51.828;5.688;2023-04-03T16:35:51;3.70;;;0.32;;
42244;SDS011;27912;51.828;5.688;2023-04-03T16:38:17;4.22;;;1.42;;
42244;SDS011;27912;51.828;5.688;2023-04-03T16:40:47;3.22;;;0.60;;
42244;SDS011;27912;51.828;5.688;2023-04-03T16:43:13;3.22;;;0.60;;